Time;durP1;ratioP1;P1;durP2;ratioP2;P2;SDS_P1;SDS_P2;PMS_P1;PMS_P2;Temp;Humidity;BMP_temperature;BMP_pressure;BME280_temperature;BME280_humidity;BME280_pressure;Samples;Min_cycle;Max_cycle;Signal;HPM_P1;HPM_P2
2021/10/08 00:01:54;;;;;;;7.03;4.28;;;;;;;;;;5027991;28;20069;-60
2021/10/08 00:04:19;;;;;;;9.20;4.35;;;;;;;;;;5028155;28;20497;-62
2021/10/08 00:06:45;;;;;;;8.60;4.50;;;;;;;;;;5028468;28;20069;-59
2021/10/08 00:09:10;;;;;;;10.38;5.20;;;;;;;;;;5032499;28;20029;-60
2021/10/08 00:11:36;;;;;;;8.00;4.55;;;;;;;;;;5048295;28;20025;-61
2021/10/08 00:14:01;;;;;;;7.68;4.90;;;;;;;;;;5048009;28;20056;-62
2021/10/08 00:16:26;;;;;;;7.32;4.85;;;;;;;;;;5049312;28;20072;-60
2021/10/08 00:18:51;;;;;;;7.72;4.40;;;;;;;;;;5047762;28;20056;-59
2021/10/08 00:21:17;;;;;;;8.18;4.20;;;;;;;;;;5048104;28;20057;-60
2021/10/08 00:23:42;;;;;;;8.77;4.82;;;;;;;;;;5046511;28;26688;-58
2021/10/08 00:26:07;;;;;;;7.53;4.60;;;;;;;;;;5048500;28;20486;-60
2021/10/08 00:28:32;;;;;;;7.10;4.47;;;;;;;;;;5047834;28;20176;-61
2021/10/08 00:30:57;;;;;;;9.13;4.78;;;;;;;;;;5063854;28;20061;-64
2021/10/08 00:33:23;;;;;;;8.23;4.45;;;;;;;;;;5063702;28;20036;-63
2021/10/08 00:35:48;;;;;;;6.78;4.38;;;;;;;;;;5063569;28;20116;-60
2021/10/08 00:38:13;;;;;;;10.70;4.38;;;;;;;;;;5070278;28;20059;-63
2021/10/08 00:40:40;;;;;;;7.93;4.47;;;;;;;;;;5069092;28;20151;-60
2021/10/08 00:43:05;;;;;;;7.28;4.10;;;;;;;;;;5066231;28;20035;-60
2021/10/08 00:45:31;;;;;;;9.02;4.32;;;;;;;;;;5049774;28;20041;-60
2021/10/08 00:47:57;;;;;;;7.22;4.60;;;;;;;;;;5047271;28;20037;-61
2021/10/08 00:50:22;;;;;;;7.93;4.50;;;;;;;;;;5047556;28;20025;-59
2021/10/08 00:52:47;;;;;;;8.60;4.95;;;;;;;;;;5040489;28;20083;-60
2021/10/08 00:55:12;;;;;;;7.25;4.28;;;;;;;;;;5034016;28;20041;-60
2021/10/08 00:57:38;;;;;;;7.93;4.28;;;;;;;;;;5034243;28;20045;-60
2021/10/08 01:00:03;;;;;;;10.18;4.53;;;;;;;;;;5040513;28;20025;-59
2021/10/08 01:02:28;;;;;;;14.60;5.20;;;;;;;;;;5053383;28;20046;-60
2021/10/08 01:04:56;;;;;;;12.38;4.72;;;;;;;;;;5069293;28;20500;-60
2021/10/08 01:07:22;;;;;;;7.63;4.55;;;;;;;;;;5068634;28;20444;-60
2021/10/08 01:09:47;;;;;;;7.68;4.43;;;;;;;;;;5054151;28;20067;-59
2021/10/08 01:12:12;;;;;;;9.23;4.75;;;;;;;;;;5052447;28;20037;-58
2021/10/08 01:14:37;;;;;;;8.52;4.50;;;;;;;;;;5036914;28;20037;-58
2021/10/08 01:17:10;;;;;;;9.75;4.45;;;;;;;;;;5033585;28;20045;-59
2021/10/08 01:19:36;;;;;;;7.97;4.43;;;;;;;;;;5034210;28;20025;-59
2021/10/08 01:22:02;;;;;;;9.80;4.25;;;;;;;;;;5033319;28;20493;-58
2021/10/08 01:24:27;;;;;;;10.02;4.72;;;;;;;;;;5033472;28;20034;-58
2021/10/08 01:26:52;;;;;;;7.50;4.35;;;;;;;;;;5033618;28;20041;-59
2021/10/08 01:29:17;;;;;;;10.85;5.15;;;;;;;;;;5046571;28;20037;-57
2021/10/08 01:31:43;;;;;;;6.15;4.40;;;;;;;;;;5033766;28;20037;-58
2021/10/08 01:34:08;;;;;;;12.05;4.57;;;;;;;;;;5033481;28;20033;-59
2021/10/08 01:36:33;;;;;;;7.18;4.68;;;;;;;;;;5033198;28;20045;-60
2021/10/08 01:38:58;;;;;;;10.98;4.25;;;;;;;;;;5034046;28;20022;-60
2021/10/08 01:41:24;;;;;;;10.98;5.00;;;;;;;;;;5039249;28;20111;-58
2021/10/08 01:43:50;;;;;;;9.95;4.80;;;;;;;;;;5047726;28;20042;-59
2021/10/08 01:46:15;;;;;;;9.43;4.57;;;;;;;;;;5031437;28;20084;-57
2021/10/08 01:48:40;;;;;;;8.45;4.70;;;;;;;;;;5028497;28;20034;-58
2021/10/08 01:51:05;;;;;;;9.38;4.90;;;;;;;;;;5038820;28;20472;-59
2021/10/08 01:53:30;;;;;;;8.40;4.78;;;;;;;;;;5032808;28;20029;-58
2021/10/08 01:55:56;;;;;;;9.40;4.55;;;;;;;;;;5033106;28;20105;-56
2021/10/08 01:58:21;;;;;;;9.55;4.70;;;;;;;;;;5048510;28;20087;-59
2021/10/08 02:00:46;;;;;;;7.85;4.75;;;;;;;;;;5032643;28;20041;-58
2021/10/08 02:03:12;;;;;;;10.35;4.63;;;;;;;;;;5029989;28;20056;-57
2021/10/08 02:05:37;;;;;;;10.00;5.13;;;;;;;;;;5030907;28;20123;-61
2021/10/08 02:08:02;;;;;;;9.18;4.60;;;;;;;;;;5031735;28;20053;-59
2021/10/08 02:10:27;;;;;;;9.02;4.93;;;;;;;;;;5031846;28;20501;-59
2021/10/08 02:12:52;;;;;;;8.40;4.82;;;;;;;;;;5031981;28;20044;-58
2021/10/08 02:15:18;;;;;;;11.57;5.15;;;;;;;;;;5032049;28;20036;-60
2021/10/08 02:17:43;;;;;;;8.70;5.18;;;;;;;;;;5032294;28;20030;-59
2021/10/08 02:20:10;;;;;;;11.13;5.22;;;;;;;;;;5032289;28;20048;-59
2021/10/08 02:22:35;;;;;;;10.75;5.05;;;;;;;;;;5032468;28;20033;-59
2021/10/08 02:25:00;;;;;;;8.48;4.82;;;;;;;;;;5031295;28;20026;-57
2021/10/08 02:27:25;;;;;;;10.18;5.10;;;;;;;;;;5032414;28;20127;-57
2021/10/08 02:29:50;;;;;;;6.32;4.45;;;;;;;;;;5032374;28;20119;-58
2021/10/08 02:32:16;;;;;;;10.20;5.13;;;;;;;;;;5032065;28;20061;-57
2021/10/08 02:34:41;;;;;;;8.60;5.50;;;;;;;;;;5031096;28;20079;-59
2021/10/08 02:37:06;;;;;;;10.20;5.07;;;;;;;;;;5031973;28;20037;-56
2021/10/08 02:39:31;;;;;;;7.10;4.65;;;;;;;;;;5031615;28;20041;-54
2021/10/08 02:41:57;;;;;;;8.65;4.80;;;;;;;;;;5031451;28;20077;-56
2021/10/08 02:44:22;;;;;;;6.55;4.57;;;;;;;;;;5029985;28;20034;-58
2021/10/08 02:46:47;;;;;;;6.88;4.97;;;;;;;;;;5031885;28;20056;-60
2021/10/08 02:49:12;;;;;;;11.60;5.32;;;;;;;;;;5031043;28;20476;-55
2021/10/08 02:51:40;;;;;;;8.40;4.63;;;;;;;;;;5032117;28;20405;-59
2021/10/08 02:54:05;;;;;;;10.55;4.43;;;;;;;;;;5028532;28;20029;-59
2021/10/08 02:56:30;;;;;;;7.95;4.78;;;;;;;;;;5030785;28;20036;-55
2021/10/08 02:58:55;;;;;;;9.63;4.55;;;;;;;;;;5030699;28;20021;-58
2021/10/08 03:01:21;;;;;;;10.77;4.65;;;;;;;;;;5030384;28;20045;-59
2021/10/08 03:03:46;;;;;;;9.07;4.70;;;;;;;;;;5030319;28;20029;-59
2021/10/08 03:06:11;;;;;;;7.97;4.32;;;;;;;;;;5031241;28;20408;-61
2021/10/08 03:08:37;;;;;;;9.80;4.95;;;;;;;;;;5030941;28;20122;-59
2021/10/08 03:11:02;;;;;;;9.88;4.68;;;;;;;;;;5029901;28;20053;-61
2021/10/08 03:13:27;;;;;;;7.80;4.75;;;;;;;;;;5045776;28;20025;-56
2021/10/08 03:15:52;;;;;;;10.82;4.55;;;;;;;;;;5030218;28;20033;-57
2021/10/08 03:18:17;;;;;;;8.70;4.47;;;;;;;;;;5030476;28;20482;-60
2021/10/08 03:20:43;;;;;;;6.38;4.35;;;;;;;;;;5030300;28;20124;-59
2021/10/08 03:23:08;;;;;;;10.23;4.78;;;;;;;;;;5030552;28;20457;-59
2021/10/08 03:25:33;;;;;;;10.70;4.72;;;;;;;;;;5029936;28;20497;-60
2021/10/08 03:27:58;;;;;;;13.10;5.80;;;;;;;;;;5029925;28;20029;-59
2021/10/08 03:30:24;;;;;;;8.35;5.05;;;;;;;;;;5030112;28;20030;-59
2021/10/08 03:32:49;;;;;;;9.65;5.15;;;;;;;;;;5029945;28;20405;-59
2021/10/08 03:35:14;;;;;;;10.82;5.00;;;;;;;;;;5030122;28;20092;-59
2021/10/08 03:38:14;;;;;;;9.68;5.57;;;;;;;;;;5028137;28;20554;-59
2021/10/08 03:40:32;;;;;;;9.43;5.07;;;;;;;;;;5029314;28;20049;-60
2021/10/08 03:43:00;;;;;;;10.70;4.90;;;;;;;;;;5029724;28;20150;-60
2021/10/08 03:45:30;;;;;;;9.38;4.53;;;;;;;;;;5028439;28;20034;-59
2021/10/08 03:50:33;;;;;;;9.18;5.03;;;;;;;;;;5042050;28;20045;-60
2021/10/08 03:52:58;;;;;;;7.30;4.90;;;;;;;;;;5030009;28;20103;-60
2021/10/08 03:55:24;;;;;;;10.57;5.35;;;;;;;;;;5044969;28;20030;-59
2021/10/08 03:57:49;;;;;;;9.93;5.22;;;;;;;;;;5028682;28;20514;-60
2021/10/08 04:00:15;;;;;;;13.82;5.30;;;;;;;;;;5028889;28;20112;-60
2021/10/08 04:02:40;;;;;;;8.55;5.75;;;;;;;;;;5046675;28;20042;-58
2021/10/08 04:05:06;;;;;;;8.00;4.68;;;;;;;;;;5031253;28;20098;-59
2021/10/08 04:07:31;;;;;;;10.13;5.18;;;;;;;;;;5030867;28;20048;-59
2021/10/08 04:09:56;;;;;;;10.45;4.70;;;;;;;;;;5031208;28;20033;-60
2021/10/08 04:12:21;;;;;;;9.07;5.63;;;;;;;;;;5031298;28;20045;-59
2021/10/08 04:14:47;;;;;;;9.02;5.75;;;;;;;;;;5030951;28;20033;-59
2021/10/08 04:17:12;;;;;;;9.30;5.05;;;;;;;;;;5031195;28;20053;-59
2021/10/08 04:19:37;;;;;;;8.65;4.65;;;;;;;;;;5030186;28;20127;-59
2021/10/08 04:22:02;;;;;;;10.00;5.20;;;;;;;;;;5030790;28;20056;-60
2021/10/08 04:24:27;;;;;;;11.60;6.10;;;;;;;;;;5030735;28;20083;-60
2021/10/08 04:26:53;;;;;;;8.63;5.35;;;;;;;;;;5031036;28;20095;-59
2021/10/08 04:29:18;;;;;;;9.38;5.20;;;;;;;;;;5034736;28;20087;-58
2021/10/08 04:31:43;;;;;;;10.20;5.35;;;;;;;;;;5034455;28;20029;-59
2021/10/08 04:34:08;;;;;;;12.02;5.07;;;;;;;;;;5049365;28;20033;-59
2021/10/08 04:36:33;;;;;;;10.07;5.40;;;;;;;;;;5034068;28;20413;-60
2021/10/08 04:38:59;;;;;;;12.35;5.72;;;;;;;;;;5033251;28;20037;-60
2021/10/08 04:41:24;;;;;;;10.80;5.03;;;;;;;;;;5034053;28;20111;-59
2021/10/08 04:43:49;;;;;;;10.15;5.07;;;;;;;;;;5034404;28;20076;-60
2021/10/08 04:46:14;;;;;;;9.48;5.78;;;;;;;;;;5033078;28;20033;-60
2021/10/08 04:48:40;;;;;;;10.23;5.97;;;;;;;;;;5034437;28;20486;-59
2021/10/08 04:51:05;;;;;;;12.63;6.10;;;;;;;;;;5034581;28;20112;-59
2021/10/08 04:53:30;;;;;;;12.13;5.45;;;;;;;;;;5034472;28;20184;-60
2021/10/08 04:55:55;;;;;;;14.02;5.95;;;;;;;;;;5034109;28;20027;-59
2021/10/08 04:58:20;;;;;;;9.07;5.60;;;;;;;;;;5034677;28;20045;-59
2021/10/08 05:00:46;;;;;;;11.77;6.13;;;;;;;;;;5034170;28;20049;-62
2021/10/08 05:03:15;;;;;;;17.17;5.88;;;;;;;;;;5034291;28;20581;-59
2021/10/08 05:05:46;;;;;;;11.93;6.03;;;;;;;;;;5034115;28;20048;-59
2021/10/08 05:08:11;;;;;;;9.43;5.43;;;;;;;;;;5034266;28;20037;-59
2021/10/08 05:10:36;;;;;;;18.67;6.22;;;;;;;;;;5034124;28;20029;-60
2021/10/08 05:13:01;;;;;;;10.77;6.22;;;;;;;;;;5033839;28;20140;-59
2021/10/08 05:15:26;;;;;;;10.68;6.18;;;;;;;;;;5033918;28;20496;-58
2021/10/08 05:17:52;;;;;;;12.77;6.07;;;;;;;;;;5033874;28;20049;-60
2021/10/08 05:20:17;;;;;;;9.98;5.60;;;;;;;;;;5033539;28;20048;-58
2021/10/08 05:22:42;;;;;;;11.13;6.22;;;;;;;;;;5033659;28;20082;-60
2021/10/08 05:25:07;;;;;;;11.90;5.60;;;;;;;;;;5033040;28;20059;-58
2021/10/08 05:27:33;;;;;;;14.60;6.45;;;;;;;;;;5032829;28;20033;-58
2021/10/08 05:29:58;;;;;;;13.57;5.97;;;;;;;;;;5033097;28;20112;-61
2021/10/08 05:32:23;;;;;;;14.18;5.50;;;;;;;;;;5032846;28;20662;-59
2021/10/08 05:34:48;;;;;;;10.35;6.35;;;;;;;;;;5033415;28;20474;-61
2021/10/08 05:37:13;;;;;;;8.88;5.20;;;;;;;;;;5033476;28;20032;-59
2021/10/08 05:39:39;;;;;;;10.02;5.25;;;;;;;;;;5033349;28;20041;-59
2021/10/08 05:42:05;;;;;;;14.95;6.70;;;;;;;;;;5032354;28;20057;-59
2021/10/08 05:44:30;;;;;;;13.73;6.60;;;;;;;;;;5032847;28;20470;-60
2021/10/08 05:46:55;;;;;;;11.13;6.00;;;;;;;;;;5033068;28;20088;-59
2021/10/08 05:49:20;;;;;;;9.10;5.97;;;;;;;;;;5033097;28;20095;-59
2021/10/08 05:51:45;;;;;;;12.52;6.28;;;;;;;;;;5033032;28;20056;-61
2021/10/08 05:54:11;;;;;;;10.65;6.10;;;;;;;;;;5032839;28;20041;-59
2021/10/08 05:56:36;;;;;;;13.88;5.80;;;;;;;;;;5047954;28;20103;-59
2021/10/08 05:59:01;;;;;;;15.18;6.20;;;;;;;;;;5032342;28;20025;-60
2021/10/08 06:01:26;;;;;;;18.30;6.13;;;;;;;;;;5032342;28;20033;-59
2021/10/08 06:03:52;;;;;;;15.82;6.22;;;;;;;;;;5032996;28;20045;-59
2021/10/08 06:06:17;;;;;;;17.90;6.95;;;;;;;;;;5032492;28;20025;-58
2021/10/08 06:08:42;;;;;;;11.13;6.13;;;;;;;;;;5031360;28;20025;-59
2021/10/08 06:11:09;;;;;;;11.80;6.15;;;;;;;;;;5032990;28;20037;-60
2021/10/08 06:13:35;;;;;;;11.63;6.18;;;;;;;;;;5048216;28;20134;-58
2021/10/08 06:16:00;;;;;;;12.75;6.30;;;;;;;;;;5032814;28;20021;-61
2021/10/08 06:18:25;;;;;;;15.57;7.50;;;;;;;;;;5032760;28;20468;-60
2021/10/08 06:20:50;;;;;;;10.40;6.40;;;;;;;;;;5043187;28;20562;-62
2021/10/08 06:23:15;;;;;;;12.07;6.65;;;;;;;;;;5052036;28;20481;-60
2021/10/08 06:25:41;;;;;;;13.85;6.57;;;;;;;;;;5052416;28;20503;-62
2021/10/08 06:28:06;;;;;;;13.18;6.55;;;;;;;;;;5052788;28;20033;-60
2021/10/08 06:30:31;;;;;;;12.02;5.97;;;;;;;;;;5067829;28;20039;-60
2021/10/08 06:32:56;;;;;;;13.02;6.90;;;;;;;;;;5052354;28;20028;-60
2021/10/08 06:35:22;;;;;;;12.43;6.28;;;;;;;;;;5052133;28;20057;-63
2021/10/08 06:37:47;;;;;;;12.85;5.78;;;;;;;;;;5052580;28;20045;-60
2021/10/08 06:40:12;;;;;;;13.52;6.55;;;;;;;;;;5033749;28;20036;-61
2021/10/08 06:42:37;;;;;;;14.57;6.63;;;;;;;;;;5031651;28;20048;-58
2021/10/08 06:45:03;;;;;;;11.98;6.43;;;;;;;;;;5030551;28;20037;-59
2021/10/08 06:47:28;;;;;;;13.07;6.18;;;;;;;;;;5032455;28;20029;-59
2021/10/08 06:49:53;;;;;;;14.00;6.43;;;;;;;;;;5031662;28;20041;-58
2021/10/08 06:52:18;;;;;;;12.30;6.40;;;;;;;;;;5045006;28;20033;-59
2021/10/08 06:54:44;;;;;;;12.35;5.78;;;;;;;;;;5034061;28;20033;-60
2021/10/08 06:57:09;;;;;;;14.18;6.55;;;;;;;;;;5067483;28;20408;-60
2021/10/08 06:59:34;;;;;;;12.95;6.15;;;;;;;;;;5050840;28;20036;-59
2021/10/08 07:01:59;;;;;;;11.98;6.10;;;;;;;;;;5051394;28;20660;-61
2021/10/08 07:04:25;;;;;;;15.10;6.50;;;;;;;;;;5051366;28;20052;-60
2021/10/08 07:06:51;;;;;;;12.98;6.50;;;;;;;;;;5051224;28;20098;-60
2021/10/08 07:09:16;;;;;;;15.80;6.18;;;;;;;;;;5051218;28;20116;-59
2021/10/08 07:11:41;;;;;;;11.15;6.50;;;;;;;;;;5051413;28;20059;-59
2021/10/08 07:14:06;;;;;;;15.98;6.22;;;;;;;;;;5051835;28;20401;-60
2021/10/08 07:16:32;;;;;;;13.55;6.45;;;;;;;;;;5049458;28;20040;-60
2021/10/08 07:19:04;;;;;;;13.23;6.40;;;;;;;;;;5051518;28;20025;-59
2021/10/08 07:21:29;;;;;;;14.88;6.35;;;;;;;;;;5050456;28;20401;-61
2021/10/08 07:23:54;;;;;;;13.18;5.95;;;;;;;;;;5050974;28;20033;-60
2021/10/08 07:26:22;;;;;;;12.57;6.40;;;;;;;;;;5051114;28;20028;-61
2021/10/08 07:28:47;;;;;;;13.40;6.90;;;;;;;;;;5051067;28;20059;-60
2021/10/08 07:31:12;;;;;;;16.20;7.38;;;;;;;;;;5051069;28;20430;-58
2021/10/08 07:33:37;;;;;;;12.73;6.72;;;;;;;;;;5051271;28;20098;-58
2021/10/08 07:36:03;;;;;;;11.98;6.10;;;;;;;;;;5051228;28;20072;-59
2021/10/08 07:38:28;;;;;;;14.10;6.32;;;;;;;;;;5049735;28;20044;-58
2021/10/08 07:40:59;;;;;;;15.88;6.30;;;;;;;;;;5051166;28;20064;-61
2021/10/08 07:43:25;;;;;;;22.05;7.70;;;;;;;;;;5051906;28;20059;-60
2021/10/08 07:45:50;;;;;;;12.07;6.07;;;;;;;;;;5051321;28;20063;-61
2021/10/08 07:48:15;;;;;;;11.65;6.63;;;;;;;;;;5051455;28;20043;-59
2021/10/08 07:50:40;;;;;;;13.70;6.43;;;;;;;;;;5051419;28;20029;-60
2021/10/08 07:53:06;;;;;;;14.90;6.07;;;;;;;;;;5051738;28;20132;-60
2021/10/08 07:55:31;;;;;;;12.32;6.68;;;;;;;;;;5051904;28;20040;-60
2021/10/08 07:57:56;;;;;;;13.88;6.40;;;;;;;;;;5051837;28;20473;-59
2021/10/08 08:00:21;;;;;;;13.02;6.60;;;;;;;;;;5053003;28;20063;-58
2021/10/08 08:02:47;;;;;;;13.25;6.35;;;;;;;;;;5053126;28;20032;-60
2021/10/08 08:05:12;;;;;;;12.82;6.80;;;;;;;;;;5054414;28;20028;-59
2021/10/08 08:07:37;;;;;;;15.55;6.93;;;;;;;;;;5055383;28;20040;-56
2021/10/08 08:10:03;;;;;;;17.20;7.43;;;;;;;;;;5053460;28;20045;-59
2021/10/08 08:12:28;;;;;;;12.50;6.45;;;;;;;;;;5054828;28;20052;-59
2021/10/08 08:14:54;;;;;;;12.20;6.53;;;;;;;;;;5055886;28;20527;-60
2021/10/08 08:17:20;;;;;;;14.10;7.15;;;;;;;;;;5055048;28;20115;-60
2021/10/08 08:19:45;;;;;;;14.75;6.45;;;;;;;;;;5054921;28;20029;-60
2021/10/08 08:22:11;;;;;;;14.60;6.50;;;;;;;;;;5054888;28;20033;-60
2021/10/08 08:24:36;;;;;;;16.48;7.68;;;;;;;;;;5054387;28;20094;-61
2021/10/08 08:27:01;;;;;;;17.73;7.47;;;;;;;;;;5037493;28;20058;-58
2021/10/08 08:29:27;;;;;;;17.13;8.18;;;;;;;;;;5054334;28;20036;-60
2021/10/08 08:31:52;;;;;;;15.23;7.40;;;;;;;;;;5036366;28;20029;-61
2021/10/08 08:34:17;;;;;;;12.70;8.32;;;;;;;;;;5054062;28;20033;-61
2021/10/08 11:46:35;;;;;;;8.38;5.75;;;;;;;25.32;31.03;103489.34;4986522;28;20421;-57
2021/10/08 11:49:18;;;;;;;9.90;5.78;;;;;;;25.17;30.95;103476.44;4998669;28;20045;-61
2021/10/08 11:51:57;;;;;;;9.20;5.68;;;;;;;25.14;31.18;103480.75;4972541;28;20180;-60
2021/10/08 11:54:22;;;;;;;9.13;5.78;;;;;;;25.14;31.02;103479.94;4993886;28;20650;-56
